sensor_id;sensor_type;location;lat;lon;timestamp;P1;durP1;ratioP1;P2;durP2;ratioP2
55674;SDS011;41562;44.330;23.802;2023-07-31T00:00:33;4.90;;;3.28;;
55674;SDS011;41562;44.330;23.802;2023-07-31T00:03:07;5.97;;;3.45;;
55674;SDS011;41562;44.330;23.802;2023-07-31T00:05:40;3.63;;;2.80;;
55674;SDS011;41562;44.330;23.802;2023-07-31T00:08:17;5.72;;;3.42;;
55674;SDS011;41562;44.330;23.802;2023-07-31T00:10:51;6.00;;;3.42;;
55674;SDS011;41562;44.330;23.802;2023-07-31T00:13:22;4.80;;;3.30;;
55674;SDS011;41562;44.330;23.802;2023-07-31T00:15:59;4.53;;;3.42;;
55674;SDS011;41562;44.330;23.802;2023-07-31T00:18:33;4.90;;;3.55;;
55674;SDS011;41562;44.330;23.802;2023-07-31T00:21:07;5.05;;;3.22;;
55674;SDS011;41562;44.330;23.802;2023-07-31T00:23:51;4.75;;;3.47;;
55674;SDS011;41562;44.330;23.802;2023-07-31T00:26:24;4.95;;;3.35;;
55674;SDS011;41562;44.330;23.802;2023-07-31T00:28:58;5.47;;;3.17;;
55674;SDS011;41562;44.330;23.802;2023-07-31T00:31:28;5.97;;;3.45;;
55674;SDS011;41562;44.330;23.802;2023-07-31T00:33:59;5.07;;;3.63;;
55674;SDS011;41562;44.330;23.802;2023-07-31T00:36:32;4.63;;;3.40;;
55674;SDS011;41562;44.330;23.802;2023-07-31T00:39:08;5.90;;;4.00;;
55674;SDS011;41562;44.330;23.802;2023-07-31T00:41:36;6.20;;;3.53;;
55674;SDS011;41562;44.330;23.802;2023-07-31T00:44:09;7.40;;;3.67;;
55674;SDS011;41562;44.330;23.802;2023-07-31T00:46:42;7.95;;;3.45;;
55674;SDS011;41562;44.330;23.802;2023-07-31T00:49:13;6.63;;;3.75;;
55674;SDS011;41562;44.330;23.802;2023-07-31T00:51:44;7.05;;;4.15;;
55674;SDS011;41562;44.330;23.802;2023-07-31T00:54:15;4.65;;;3.13;;
55674;SDS011;41562;44.330;23.802;2023-07-31T00:59:17;4.82;;;3.47;;
55674;SDS011;41562;44.330;23.802;2023-07-31T01:01:54;5.95;;;3.80;;
55674;SDS011;41562;44.330;23.802;2023-07-31T01:04:21;6.32;;;3.60;;
55674;SDS011;41562;44.330;23.802;2023-07-31T01:12:25;6.25;;;4.05;;
55674;SDS011;41562;44.330;23.802;2023-07-31T01:15:05;6.07;;;3.78;;
55674;SDS011;41562;44.330;23.802;2023-07-31T01:17:40;5.10;;;3.53;;
55674;SDS011;41562;44.330;23.802;2023-07-31T01:20:17;8.50;;;3.63;;
55674;SDS011;41562;44.330;23.802;2023-07-31T01:22:54;6.18;;;3.88;;
55674;SDS011;41562;44.330;23.802;2023-07-31T01:29:25;5.05;;;3.83;;
55674;SDS011;41562;44.330;23.802;2023-07-31T01:31:26;7.13;;;4.03;;
55674;SDS011;41562;44.330;23.802;2023-07-31T01:34:00;5.13;;;3.40;;
55674;SDS011;41562;44.330;23.802;2023-07-31T01:36:34;7.18;;;2.95;;
55674;SDS011;41562;44.330;23.802;2023-07-31T01:39:02;5.90;;;3.90;;
55674;SDS011;41562;44.330;23.802;2023-07-31T01:41:42;5.22;;;3.45;;
55674;SDS011;41562;44.330;23.802;2023-07-31T01:44:15;5.10;;;3.80;;
55674;SDS011;41562;44.330;23.802;2023-07-31T01:46:51;12.20;;;4.13;;
55674;SDS011;41562;44.330;23.802;2023-07-31T01:49:27;5.78;;;3.67;;
55674;SDS011;41562;44.330;23.802;2023-07-31T01:52:01;6.00;;;3.93;;
55674;SDS011;41562;44.330;23.802;2023-07-31T01:54:32;5.70;;;3.80;;
55674;SDS011;41562;44.330;23.802;2023-07-31T01:57:06;5.20;;;3.53;;
55674;SDS011;41562;44.330;23.802;2023-07-31T01:59:36;4.50;;;3.42;;
55674;SDS011;41562;44.330;23.802;2023-07-31T02:02:06;5.30;;;3.55;;
55674;SDS011;41562;44.330;23.802;2023-07-31T02:04:41;7.45;;;3.83;;
55674;SDS011;41562;44.330;23.802;2023-07-31T02:07:11;5.30;;;3.45;;
55674;SDS011;41562;44.330;23.802;2023-07-31T02:09:38;6.50;;;2.95;;
55674;SDS011;41562;44.330;23.802;2023-07-31T02:12:11;6.55;;;3.60;;
55674;SDS011;41562;44.330;23.802;2023-07-31T02:14:44;4.95;;;3.40;;
55674;SDS011;41562;44.330;23.802;2023-07-31T02:17:14;6.15;;;2.92;;
55674;SDS011;41562;44.330;23.802;2023-07-31T02:19:44;6.03;;;3.35;;
55674;SDS011;41562;44.330;23.802;2023-07-31T02:22:18;4.43;;;2.88;;
55674;SDS011;41562;44.330;23.802;2023-07-31T02:24:48;6.65;;;3.42;;
55674;SDS011;41562;44.330;23.802;2023-07-31T02:27:19;6.72;;;3.45;;
55674;SDS011;41562;44.330;23.802;2023-07-31T02:29:52;5.07;;;3.78;;
55674;SDS011;41562;44.330;23.802;2023-07-31T02:32:26;5.80;;;3.58;;
55674;SDS011;41562;44.330;23.802;2023-07-31T02:34:58;4.50;;;3.42;;
55674;SDS011;41562;44.330;23.802;2023-07-31T02:37:31;4.28;;;3.08;;
55674;SDS011;41562;44.330;23.802;2023-07-31T02:40:02;4.88;;;2.97;;
55674;SDS011;41562;44.330;23.802;2023-07-31T02:42:41;4.50;;;2.92;;
55674;SDS011;41562;44.330;23.802;2023-07-31T02:45:14;4.07;;;2.90;;
55674;SDS011;41562;44.330;23.802;2023-07-31T02:47:44;4.35;;;2.95;;
55674;SDS011;41562;44.330;23.802;2023-07-31T02:50:14;5.80;;;3.05;;
55674;SDS011;41562;44.330;23.802;2023-07-31T02:52:44;6.45;;;2.55;;
55674;SDS011;41562;44.330;23.802;2023-07-31T02:55:20;5.40;;;2.95;;
55674;SDS011;41562;44.330;23.802;2023-07-31T02:57:48;5.57;;;2.75;;
55674;SDS011;41562;44.330;23.802;2023-07-31T03:00:18;5.23;;;3.03;;
55674;SDS011;41562;44.330;23.802;2023-07-31T03:02:52;3.03;;;2.45;;
55674;SDS011;41562;44.330;23.802;2023-07-31T03:05:31;4.65;;;3.22;;
55674;SDS011;41562;44.330;23.802;2023-07-31T03:08:05;4.53;;;2.65;;
55674;SDS011;41562;44.330;23.802;2023-07-31T03:10:41;2.92;;;2.35;;
55674;SDS011;41562;44.330;23.802;2023-07-31T03:13:13;3.40;;;2.35;;
55674;SDS011;41562;44.330;23.802;2023-07-31T03:15:47;4.13;;;2.80;;
55674;SDS011;41562;44.330;23.802;2023-07-31T03:18:17;4.45;;;2.53;;
55674;SDS011;41562;44.330;23.802;2023-07-31T03:20:49;3.15;;;2.28;;
55674;SDS011;41562;44.330;23.802;2023-07-31T03:23:16;3.33;;;1.90;;
55674;SDS011;41562;44.330;23.802;2023-07-31T03:25:57;4.95;;;2.47;;
55674;SDS011;41562;44.330;23.802;2023-07-31T03:28:28;3.10;;;2.47;;
55674;SDS011;41562;44.330;23.802;2023-07-31T03:30:57;2.65;;;1.73;;
55674;SDS011;41562;44.330;23.802;2023-07-31T03:33:30;3.22;;;2.30;;
55674;SDS011;41562;44.330;23.802;2023-07-31T03:36:03;6.10;;;1.98;;
55674;SDS011;41562;44.330;23.802;2023-07-31T03:38:34;2.38;;;1.70;;
55674;SDS011;41562;44.330;23.802;2023-07-31T03:41:05;2.38;;;1.40;;
55674;SDS011;41562;44.330;23.802;2023-07-31T03:43:35;4.32;;;2.15;;
55674;SDS011;41562;44.330;23.802;2023-07-31T03:46:09;2.67;;;1.80;;
55674;SDS011;41562;44.330;23.802;2023-07-31T03:48:46;3.35;;;1.63;;
55674;SDS011;41562;44.330;23.802;2023-07-31T03:51:13;2.75;;;1.88;;
55674;SDS011;41562;44.330;23.802;2023-07-31T03:53:52;3.60;;;1.90;;
55674;SDS011;41562;44.330;23.802;2023-07-31T03:56:24;2.40;;;1.80;;
55674;SDS011;41562;44.330;23.802;2023-07-31T03:58:54;2.78;;;2.08;;
55674;SDS011;41562;44.330;23.802;2023-07-31T04:01:29;2.42;;;1.40;;
55674;SDS011;41562;44.330;23.802;2023-07-31T04:03:57;2.60;;;1.70;;
55674;SDS011;41562;44.330;23.802;2023-07-31T04:06:25;2.50;;;1.50;;
55674;SDS011;41562;44.330;23.802;2023-07-31T04:08:58;2.38;;;1.58;;
55674;SDS011;41562;44.330;23.802;2023-07-31T04:11:26;2.53;;;1.88;;
55674;SDS011;41562;44.330;23.802;2023-07-31T04:13:57;1.58;;;1.48;;
55674;SDS011;41562;44.330;23.802;2023-07-31T04:16:27;2.35;;;1.85;;
55674;SDS011;41562;44.330;23.802;2023-07-31T04:18:58;7.05;;;2.03;;
55674;SDS011;41562;44.330;23.802;2023-07-31T04:21:25;2.03;;;1.60;;
55674;SDS011;41562;44.330;23.802;2023-07-31T04:23:58;2.20;;;1.50;;
55674;SDS011;41562;44.330;23.802;2023-07-31T04:26:31;2.22;;;1.60;;
55674;SDS011;41562;44.330;23.802;2023-07-31T04:29:06;1.88;;;1.70;;
55674;SDS011;41562;44.330;23.802;2023-07-31T04:31:36;7.38;;;2.03;;
55674;SDS011;41562;44.330;23.802;2023-07-31T04:34:05;3.47;;;2.03;;
55674;SDS011;41562;44.330;23.802;2023-07-31T04:36:45;3.80;;;2.08;;
55674;SDS011;41562;44.330;23.802;2023-07-31T04:39:13;3.95;;;2.25;;
55674;SDS011;41562;44.330;23.802;2023-07-31T04:41:43;3.35;;;2.33;;
55674;SDS011;41562;44.330;23.802;2023-07-31T04:44:19;2.85;;;2.22;;
55674;SDS011;41562;44.330;23.802;2023-07-31T04:46:51;3.35;;;2.35;;
55674;SDS011;41562;44.330;23.802;2023-07-31T04:49:19;4.40;;;2.30;;
55674;SDS011;41562;44.330;23.802;2023-07-31T04:51:51;2.50;;;1.95;;
55674;SDS011;41562;44.330;23.802;2023-07-31T04:54:21;3.65;;;2.72;;
55674;SDS011;41562;44.330;23.802;2023-07-31T04:56:52;5.30;;;2.55;;
55674;SDS011;41562;44.330;23.802;2023-07-31T04:59:22;4.50;;;2.80;;
55674;SDS011;41562;44.330;23.802;2023-07-31T05:01:49;2.72;;;2.00;;
55674;SDS011;41562;44.330;23.802;2023-07-31T05:04:17;6.63;;;2.67;;
55674;SDS011;41562;44.330;23.802;2023-07-31T05:06:51;3.35;;;2.60;;
55674;SDS011;41562;44.330;23.802;2023-07-31T05:09:22;3.50;;;2.63;;
55674;SDS011;41562;44.330;23.802;2023-07-31T05:11:49;5.60;;;2.90;;
55674;SDS011;41562;44.330;23.802;2023-07-31T05:14:19;4.43;;;3.13;;
55674;SDS011;41562;44.330;23.802;2023-07-31T05:16:55;3.92;;;3.00;;
55674;SDS011;41562;44.330;23.802;2023-07-31T05:19:23;3.72;;;2.60;;
55674;SDS011;41562;44.330;23.802;2023-07-31T05:21:53;4.07;;;2.88;;
55674;SDS011;41562;44.330;23.802;2023-07-31T05:24:20;2.70;;;2.45;;
55674;SDS011;41562;44.330;23.802;2023-07-31T05:26:52;6.07;;;3.03;;
55674;SDS011;41562;44.330;23.802;2023-07-31T05:29:25;6.00;;;3.03;;
55674;SDS011;41562;44.330;23.802;2023-07-31T05:34:29;4.37;;;3.00;;
55674;SDS011;41562;44.330;23.802;2023-07-31T05:36:56;5.53;;;3.67;;
55674;SDS011;41562;44.330;23.802;2023-07-31T05:39:29;5.50;;;3.63;;
55674;SDS011;41562;44.330;23.802;2023-07-31T05:42:00;4.57;;;3.28;;
55674;SDS011;41562;44.330;23.802;2023-07-31T05:44:30;5.95;;;3.30;;
55674;SDS011;41562;44.330;23.802;2023-07-31T05:46:57;4.35;;;3.60;;
55674;SDS011;41562;44.330;23.802;2023-07-31T05:49:31;7.10;;;4.20;;
55674;SDS011;41562;44.330;23.802;2023-07-31T05:52:08;9.02;;;4.38;;
55674;SDS011;41562;44.330;23.802;2023-07-31T05:54:38;8.52;;;4.32;;
55674;SDS011;41562;44.330;23.802;2023-07-31T05:57:14;8.30;;;4.82;;
55674;SDS011;41562;44.330;23.802;2023-07-31T05:59:42;7.28;;;5.05;;
55674;SDS011;41562;44.330;23.802;2023-07-31T06:02:12;7.25;;;4.75;;
55674;SDS011;41562;44.330;23.802;2023-07-31T06:04:39;6.95;;;4.57;;
55674;SDS011;41562;44.330;23.802;2023-07-31T06:07:16;8.80;;;4.80;;
55674;SDS011;41562;44.330;23.802;2023-07-31T06:09:49;6.00;;;4.18;;
55674;SDS011;41562;44.330;23.802;2023-07-31T06:12:16;8.65;;;4.95;;
55674;SDS011;41562;44.330;23.802;2023-07-31T06:14:46;9.68;;;6.10;;
55674;SDS011;41562;44.330;23.802;2023-07-31T06:17:25;7.43;;;5.20;;
55674;SDS011;41562;44.330;23.802;2023-07-31T06:19:58;7.45;;;4.95;;
55674;SDS011;41562;44.330;23.802;2023-07-31T06:22:32;7.75;;;5.65;;
55674;SDS011;41562;44.330;23.802;2023-07-31T06:25:03;7.85;;;5.53;;
55674;SDS011;41562;44.330;23.802;2023-07-31T06:27:44;8.85;;;5.40;;
55674;SDS011;41562;44.330;23.802;2023-07-31T06:30:18;7.90;;;5.55;;
55674;SDS011;41562;44.330;23.802;2023-07-31T06:32:46;7.88;;;5.07;;
55674;SDS011;41562;44.330;23.802;2023-07-31T06:35:21;6.15;;;4.88;;
55674;SDS011;41562;44.330;23.802;2023-07-31T06:37:55;9.95;;;6.13;;
55674;SDS011;41562;44.330;23.802;2023-07-31T06:40:25;8.15;;;5.22;;
55674;SDS011;41562;44.330;23.802;2023-07-31T06:43:05;7.90;;;5.68;;
55674;SDS011;41562;44.330;23.802;2023-07-31T06:45:37;11.95;;;6.25;;
55674;SDS011;41562;44.330;23.802;2023-07-31T06:48:11;9.98;;;6.47;;
55674;SDS011;41562;44.330;23.802;2023-07-31T06:50:48;10.93;;;6.47;;
55674;SDS011;41562;44.330;23.802;2023-07-31T06:53:16;9.52;;;6.85;;
55674;SDS011;41562;44.330;23.802;2023-07-31T06:55:50;7.63;;;5.97;;
55674;SDS011;41562;44.330;23.802;2023-07-31T06:58:21;10.18;;;6.53;;
55674;SDS011;41562;44.330;23.802;2023-07-31T07:00:52;9.35;;;5.90;;
55674;SDS011;41562;44.330;23.802;2023-07-31T07:03:22;10.68;;;6.45;;
55674;SDS011;41562;44.330;23.802;2023-07-31T07:05:51;8.35;;;6.15;;
55674;SDS011;41562;44.330;23.802;2023-07-31T07:08:18;10.75;;;7.32;;
55674;SDS011;41562;44.330;23.802;2023-07-31T07:10:51;8.77;;;6.28;;
55674;SDS011;41562;44.330;23.802;2023-07-31T07:13:22;9.85;;;6.45;;
55674;SDS011;41562;44.330;23.802;2023-07-31T07:15:52;9.95;;;7.15;;
55674;SDS011;41562;44.330;23.802;2023-07-31T07:18:19;11.57;;;7.67;;
55674;SDS011;41562;44.330;23.802;2023-07-31T07:20:51;10.73;;;7.18;;
55674;SDS011;41562;44.330;23.802;2023-07-31T07:23:22;12.23;;;6.45;;
55674;SDS011;41562;44.330;23.802;2023-07-31T07:25:53;13.50;;;7.53;;
55674;SDS011;41562;44.330;23.802;2023-07-31T07:28:27;9.18;;;6.07;;
55674;SDS011;41562;44.330;23.802;2023-07-31T07:30:58;9.68;;;6.68;;
55674;SDS011;41562;44.330;23.802;2023-07-31T07:33:25;10.05;;;7.05;;
55674;SDS011;41562;44.330;23.802;2023-07-31T07:38:35;9.70;;;5.82;;
55674;SDS011;41562;44.330;23.802;2023-07-31T07:41:06;10.95;;;6.43;;
55674;SDS011;41562;44.330;23.802;2023-07-31T07:43:36;11.55;;;6.32;;
55674;SDS011;41562;44.330;23.802;2023-07-31T07:46:04;11.15;;;6.65;;
55674;SDS011;41562;44.330;23.802;2023-07-31T07:48:32;10.23;;;6.15;;
55674;SDS011;41562;44.330;23.802;2023-07-31T07:51:03;9.48;;;6.00;;
55674;SDS011;41562;44.330;23.802;2023-07-31T07:53:30;11.25;;;7.38;;
55674;SDS011;41562;44.330;23.802;2023-07-31T07:55:58;13.82;;;7.55;;
55674;SDS011;41562;44.330;23.802;2023-07-31T07:58:36;10.50;;;7.00;;
55674;SDS011;41562;44.330;23.802;2023-07-31T08:03:37;11.13;;;7.15;;
55674;SDS011;41562;44.330;23.802;2023-07-31T08:06:09;11.68;;;7.03;;
55674;SDS011;41562;44.330;23.802;2023-07-31T08:08:36;12.50;;;7.53;;
55674;SDS011;41562;44.330;23.802;2023-07-31T08:11:12;9.95;;;6.65;;
55674;SDS011;41562;44.330;23.802;2023-07-31T08:13:46;12.73;;;8.20;;
55674;SDS011;41562;44.330;23.802;2023-07-31T08:16:20;9.45;;;7.55;;
55674;SDS011;41562;44.330;23.802;2023-07-31T08:18:51;10.70;;;6.72;;
55674;SDS011;41562;44.330;23.802;2023-07-31T08:21:21;9.88;;;6.82;;
55674;SDS011;41562;44.330;23.802;2023-07-31T08:23:52;10.25;;;7.03;;
55674;SDS011;41562;44.330;23.802;2023-07-31T08:26:22;10.93;;;7.22;;
55674;SDS011;41562;44.330;23.802;2023-07-31T08:28:50;13.35;;;7.38;;
55674;SDS011;41562;44.330;23.802;2023-07-31T08:31:21;10.93;;;6.93;;
55674;SDS011;41562;44.330;23.802;2023-07-31T08:33:55;9.30;;;6.72;;
55674;SDS011;41562;44.330;23.802;2023-07-31T08:36:23;13.02;;;7.95;;
55674;SDS011;41562;44.330;23.802;2023-07-31T08:38:59;9.93;;;6.07;;
55674;SDS011;41562;44.330;23.802;2023-07-31T08:41:27;9.23;;;6.25;;
55674;SDS011;41562;44.330;23.802;2023-07-31T08:43:58;8.85;;;6.55;;
55674;SDS011;41562;44.330;23.802;2023-07-31T08:46:33;8.57;;;5.72;;
55674;SDS011;41562;44.330;23.802;2023-07-31T08:49:03;9.13;;;5.78;;
55674;SDS011;41562;44.330;23.802;2023-07-31T08:51:32;6.83;;;5.33;;
55674;SDS011;41562;44.330;23.802;2023-07-31T08:54:04;9.98;;;5.90;;
55674;SDS011;41562;44.330;23.802;2023-07-31T08:56:32;8.55;;;5.38;;
55674;SDS011;41562;44.330;23.802;2023-07-31T08:59:06;9.18;;;6.03;;
55674;SDS011;41562;44.330;23.802;2023-07-31T09:01:40;10.13;;;6.00;;
55674;SDS011;41562;44.330;23.802;2023-07-31T09:04:14;8.25;;;5.00;;
55674;SDS011;41562;44.330;23.802;2023-07-31T09:06:46;8.98;;;6.00;;
55674;SDS011;41562;44.330;23.802;2023-07-31T09:09:15;8.48;;;5.55;;
55674;SDS011;41562;44.330;23.802;2023-07-31T09:11:47;10.23;;;6.10;;
55674;SDS011;41562;44.330;23.802;2023-07-31T09:14:25;10.80;;;6.43;;
55674;SDS011;41562;44.330;23.802;2023-07-31T09:16:56;12.55;;;7.38;;
55674;SDS011;41562;44.330;23.802;2023-07-31T09:19:36;10.27;;;6.30;;
55674;SDS011;41562;44.330;23.802;2023-07-31T09:22:07;9.15;;;6.35;;
55674;SDS011;41562;44.330;23.802;2023-07-31T09:24:42;12.13;;;6.45;;
55674;SDS011;41562;44.330;23.802;2023-07-31T09:27:15;9.43;;;5.70;;
55674;SDS011;41562;44.330;23.802;2023-07-31T09:29:49;8.90;;;6.28;;
55674;SDS011;41562;44.330;23.802;2023-07-31T09:32:30;8.50;;;5.90;;
55674;SDS011;41562;44.330;23.802;2023-07-31T09:35:01;9.45;;;5.80;;
55674;SDS011;41562;44.330;23.802;2023-07-31T09:37:53;8.52;;;5.78;;
55674;SDS011;41562;44.330;23.802;2023-07-31T09:40:32;9.05;;;5.72;;
55674;SDS011;41562;44.330;23.802;2023-07-31T09:43:05;8.20;;;5.30;;
55674;SDS011;41562;44.330;23.802;2023-07-31T09:45:34;8.00;;;5.55;;
55674;SDS011;41562;44.330;23.802;2023-07-31T09:48:09;9.10;;;5.93;;
55674;SDS011;41562;44.330;23.802;2023-07-31T09:50:51;8.27;;;5.97;;
55674;SDS011;41562;44.330;23.802;2023-07-31T09:53:28;7.65;;;5.82;;
55674;SDS011;41562;44.330;23.802;2023-07-31T09:55:59;9.85;;;6.97;;
55674;SDS011;41562;44.330;23.802;2023-07-31T09:58:34;8.40;;;6.00;;
55674;SDS011;41562;44.330;23.802;2023-07-31T10:01:06;10.63;;;6.65;;
55674;SDS011;41562;44.330;23.802;2023-07-31T10:03:43;7.60;;;5.30;;
55674;SDS011;41562;44.330;23.802;2023-07-31T10:06:20;9.98;;;5.80;;
55674;SDS011;41562;44.330;23.802;2023-07-31T10:08:48;7.38;;;5.75;;
55674;SDS011;41562;44.330;23.802;2023-07-31T10:11:29;7.82;;;5.68;;
55674;SDS011;41562;44.330;23.802;2023-07-31T10:14:12;7.03;;;4.93;;
55674;SDS011;41562;44.330;23.802;2023-07-31T10:16:40;7.63;;;5.13;;
55674;SDS011;41562;44.330;23.802;2023-07-31T10:21:43;7.63;;;5.05;;
55674;SDS011;41562;44.330;23.802;2023-07-31T10:24:23;7.43;;;5.40;;
55674;SDS011;41562;44.330;23.802;2023-07-31T10:26:54;7.65;;;5.50;;
55674;SDS011;41562;44.330;23.802;2023-07-31T10:29:25;7.53;;;5.38;;
55674;SDS011;41562;44.330;23.802;2023-07-31T10:31:54;7.85;;;5.00;;
55674;SDS011;41562;44.330;23.802;2023-07-31T10:34:34;7.35;;;5.15;;
55674;SDS011;41562;44.330;23.802;2023-07-31T10:37:25;8.13;;;4.55;;
55674;SDS011;41562;44.330;23.802;2023-07-31T10:42:38;5.85;;;4.07;;
55674;SDS011;41562;44.330;23.802;2023-07-31T10:45:34;5.25;;;4.35;;
55674;SDS011;41562;44.330;23.802;2023-07-31T10:48:13;5.10;;;4.00;;
55674;SDS011;41562;44.330;23.802;2023-07-31T10:51:06;6.97;;;4.53;;
55674;SDS011;41562;44.330;23.802;2023-07-31T10:56:18;6.93;;;4.32;;
55674;SDS011;41562;44.330;23.802;2023-07-31T10:59:05;6.25;;;4.22;;
55674;SDS011;41562;44.330;23.802;2023-07-31T11:01:53;6.72;;;4.68;;
55674;SDS011;41562;44.330;23.802;2023-07-31T11:04:22;6.32;;;4.15;;
55674;SDS011;41562;44.330;23.802;2023-07-31T11:07:04;5.68;;;4.05;;
55674;SDS011;41562;44.330;23.802;2023-07-31T11:09:32;4.45;;;3.78;;
55674;SDS011;41562;44.330;23.802;2023-07-31T11:12:03;6.35;;;3.75;;
55674;SDS011;41562;44.330;23.802;2023-07-31T11:14:43;6.30;;;4.13;;
55674;SDS011;41562;44.330;23.802;2023-07-31T11:17:27;6.10;;;4.00;;
55674;SDS011;41562;44.330;23.802;2023-07-31T11:20:02;6.18;;;4.47;;
55674;SDS011;41562;44.330;23.802;2023-07-31T11:22:42;6.43;;;3.90;;
55674;SDS011;41562;44.330;23.802;2023-07-31T11:25:16;5.63;;;4.25;;
55674;SDS011;41562;44.330;23.802;2023-07-31T11:27:52;5.38;;;3.95;;
55674;SDS011;41562;44.330;23.802;2023-07-31T11:30:23;6.85;;;3.95;;
55674;SDS011;41562;44.330;23.802;2023-07-31T11:33:10;6.28;;;4.40;;
55674;SDS011;41562;44.330;23.802;2023-07-31T11:35:49;5.00;;;3.88;;
55674;SDS011;41562;44.330;23.802;2023-07-31T11:38:33;4.53;;;3.20;;
55674;SDS011;41562;44.330;23.802;2023-07-31T11:41:13;4.80;;;3.70;;
55674;SDS011;41562;44.330;23.802;2023-07-31T11:43:59;4.75;;;3.55;;
55674;SDS011;41562;44.330;23.802;2023-07-31T11:47:01;4.47;;;3.55;;
55674;SDS011;41562;44.330;23.802;2023-07-31T11:49:39;4.28;;;3.50;;
55674;SDS011;41562;44.330;23.802;2023-07-31T11:52:07;4.65;;;3.28;;
55674;SDS011;41562;44.330;23.802;2023-07-31T11:54:42;5.22;;;3.08;;
55674;SDS011;41562;44.330;23.802;2023-07-31T11:57:13;5.32;;;4.03;;
55674;SDS011;41562;44.330;23.802;2023-07-31T11:59:51;4.13;;;3.17;;
55674;SDS011;41562;44.330;23.802;2023-07-31T12:02:27;4.13;;;2.95;;
55674;SDS011;41562;44.330;23.802;2023-07-31T12:04:58;4.05;;;2.85;;
55674;SDS011;41562;44.330;23.802;2023-07-31T12:07:44;7.68;;;3.70;;
55674;SDS011;41562;44.330;23.802;2023-07-31T12:10:26;4.28;;;3.22;;
55674;SDS011;41562;44.330;23.802;2023-07-31T12:13:05;3.55;;;2.65;;
55674;SDS011;41562;44.330;23.802;2023-07-31T12:15:53;4.07;;;3.28;;
55674;SDS011;41562;44.330;23.802;2023-07-31T12:18:37;4.15;;;3.17;;
55674;SDS011;41562;44.330;23.802;2023-07-31T12:21:06;4.10;;;3.05;;
55674;SDS011;41562;44.330;23.802;2023-07-31T12:23:43;4.35;;;3.00;;
55674;SDS011;41562;44.330;23.802;2023-07-31T12:26:24;3.85;;;2.80;;
55674;SDS011;41562;44.330;23.802;2023-07-31T12:29:05;3.45;;;2.45;;
55674;SDS011;41562;44.330;23.802;2023-07-31T12:31:40;3.97;;;2.85;;
55674;SDS011;41562;44.330;23.802;2023-07-31T12:34:18;4.30;;;3.00;;
55674;SDS011;41562;44.330;23.802;2023-07-31T12:36:50;3.45;;;2.40;;
55674;SDS011;41562;44.330;23.802;2023-07-31T12:39:27;3.28;;;2.75;;
55674;SDS011;41562;44.330;23.802;2023-07-31T12:42:12;3.15;;;2.40;;
55674;SDS011;41562;44.330;23.802;2023-07-31T12:44:50;4.13;;;3.05;;
55674;SDS011;41562;44.330;23.802;2023-07-31T12:47:25;3.03;;;1.75;;
55674;SDS011;41562;44.330;23.802;2023-07-31T12:50:03;3.15;;;1.80;;
55674;SDS011;41562;44.330;23.802;2023-07-31T12:52:43;2.85;;;1.70;;
55674;SDS011;41562;44.330;23.802;2023-07-31T12:55:29;3.25;;;1.80;;
55674;SDS011;41562;44.330;23.802;2023-07-31T12:57:56;2.63;;;1.92;;
55674;SDS011;41562;44.330;23.802;2023-07-31T13:00:31;1.98;;;1.27;;
55674;SDS011;41562;44.330;23.802;2023-07-31T13:03:11;1.67;;;1.35;;
55674;SDS011;41562;44.330;23.802;2023-07-31T13:05:54;2.05;;;1.38;;
55674;SDS011;41562;44.330;23.802;2023-07-31T13:08:28;1.88;;;1.55;;
55674;SDS011;41562;44.330;23.802;2023-07-31T13:10:58;1.90;;;1.55;;
55674;SDS011;41562;44.330;23.802;2023-07-31T13:13:38;1.50;;;1.30;;
55674;SDS011;41562;44.330;23.802;2023-07-31T13:16:21;1.60;;;1.20;;
55674;SDS011;41562;44.330;23.802;2023-07-31T13:19:04;1.90;;;1.45;;
55674;SDS011;41562;44.330;23.802;2023-07-31T13:21:38;2.15;;;1.08;;
55674;SDS011;41562;44.330;23.802;2023-07-31T13:24:11;1.52;;;1.20;;
55674;SDS011;41562;44.330;23.802;2023-07-31T13:26:46;1.33;;;1.00;;
55674;SDS011;41562;44.330;23.802;2023-07-31T13:29:20;0.88;;;0.85;;
55674;SDS011;41562;44.330;23.802;2023-07-31T13:31:51;1.30;;;1.15;;
55674;SDS011;41562;44.330;23.802;2023-07-31T13:34:23;0.98;;;0.95;;
55674;SDS011;41562;44.330;23.802;2023-07-31T13:36:54;0.93;;;0.82;;
55674;SDS011;41562;44.330;23.802;2023-07-31T13:39:25;1.15;;;0.82;;
55674;SDS011;41562;44.330;23.802;2023-07-31T13:42:04;1.52;;;1.20;;
55674;SDS011;41562;44.330;23.802;2023-07-31T13:44:36;1.20;;;0.95;;
55674;SDS011;41562;44.330;23.802;2023-07-31T13:47:09;1.63;;;0.93;;
55674;SDS011;41562;44.330;23.802;2023-07-31T13:49:43;0.70;;;0.70;;
55674;SDS011;41562;44.330;23.802;2023-07-31T13:52:15;1.00;;;0.90;;
55674;SDS011;41562;44.330;23.802;2023-07-31T13:54:50;1.10;;;1.00;;
55674;SDS011;41562;44.330;23.802;2023-07-31T13:57:26;1.00;;;0.80;;
55674;SDS011;41562;44.330;23.802;2023-07-31T13:59:59;1.20;;;1.10;;
55674;SDS011;41562;44.330;23.802;2023-07-31T14:02:30;1.33;;;1.05;;
55674;SDS011;41562;44.330;23.802;2023-07-31T14:05:03;2.55;;;1.55;;
55674;SDS011;41562;44.330;23.802;2023-07-31T14:07:40;1.67;;;0.98;;
55674;SDS011;41562;44.330;23.802;2023-07-31T14:10:08;1.83;;;1.30;;
55674;SDS011;41562;44.330;23.802;2023-07-31T14:12:41;1.55;;;0.93;;
55674;SDS011;41562;44.330;23.802;2023-07-31T14:15:15;1.30;;;0.95;;
55674;SDS011;41562;44.330;23.802;2023-07-31T14:17:43;3.88;;;2.13;;
55674;SDS011;41562;44.330;23.802;2023-07-31T14:20:15;4.63;;;3.55;;
55674;SDS011;41562;44.330;23.802;2023-07-31T14:22:47;5.57;;;4.43;;
55674;SDS011;41562;44.330;23.802;2023-07-31T14:25:24;5.85;;;4.30;;
55674;SDS011;41562;44.330;23.802;2023-07-31T14:27:52;4.90;;;3.65;;
55674;SDS011;41562;44.330;23.802;2023-07-31T14:30:26;6.32;;;4.30;;
55674;SDS011;41562;44.330;23.802;2023-07-31T14:32:57;6.57;;;4.03;;
55674;SDS011;41562;44.330;23.802;2023-07-31T14:35:32;5.90;;;4.20;;
55674;SDS011;41562;44.330;23.802;2023-07-31T14:38:05;5.28;;;3.80;;
55674;SDS011;41562;44.330;23.802;2023-07-31T14:43:16;2.13;;;1.50;;
55674;SDS011;41562;44.330;23.802;2023-07-31T14:45:46;3.70;;;2.60;;
55674;SDS011;41562;44.330;23.802;2023-07-31T14:48:22;4.70;;;3.42;;
55674;SDS011;41562;44.330;23.802;2023-07-31T14:50:53;5.05;;;3.78;;
55674;SDS011;41562;44.330;23.802;2023-07-31T14:53:33;1.92;;;1.38;;
55674;SDS011;41562;44.330;23.802;2023-07-31T14:56:06;6.45;;;4.53;;
55674;SDS011;41562;44.330;23.802;2023-07-31T14:58:50;5.57;;;3.70;;
55674;SDS011;41562;44.330;23.802;2023-07-31T15:01:23;6.45;;;4.15;;
55674;SDS011;41562;44.330;23.802;2023-07-31T15:04:00;5.38;;;3.30;;
55674;SDS011;41562;44.330;23.802;2023-07-31T15:06:37;4.53;;;3.42;;
55674;SDS011;41562;44.330;23.802;2023-07-31T15:09:26;4.30;;;3.10;;
55674;SDS011;41562;44.330;23.802;2023-07-31T15:12:14;4.60;;;3.13;;
55674;SDS011;41562;44.330;23.802;2023-07-31T15:15:12;4.65;;;3.22;;
55674;SDS011;41562;44.330;23.802;2023-07-31T15:18:18;5.57;;;3.80;;
55674;SDS011;41562;44.330;23.802;2023-07-31T15:21:07;3.40;;;2.63;;
55674;SDS011;41562;44.330;23.802;2023-07-31T15:23:56;3.90;;;2.25;;
55674;SDS011;41562;44.330;23.802;2023-07-31T15:26:48;7.05;;;3.05;;
55674;SDS011;41562;44.330;23.802;2023-07-31T15:29:38;4.20;;;2.90;;
55674;SDS011;41562;44.330;23.802;2023-07-31T15:32:31;8.13;;;3.38;;
55674;SDS011;41562;44.330;23.802;2023-07-31T15:35:24;7.38;;;3.75;;
55674;SDS011;41562;44.330;23.802;2023-07-31T15:38:13;4.93;;;3.60;;
55674;SDS011;41562;44.330;23.802;2023-07-31T15:41:02;6.05;;;3.72;;
55674;SDS011;41562;44.330;23.802;2023-07-31T15:44:06;7.43;;;3.45;;